Time;durP1;ratioP1;P1;durP2;ratioP2;P2;SDS_P1;SDS_P2;PMS_P1;PMS_P2;Temp;Humidity;BMP_temperature;BMP_pressure;BME280_temperature;BME280_humidity;BME280_pressure;Samples;Min_cycle;Max_cycle;Signal;HPM_P1;HPM_P2
2022/03/27 00:00:32;;;;;;;6.95;3.95;;;7.00;78.60;;;;;;1790924;79;21541;-58
2022/03/27 00:03:01;;;;;;;7.72;3.72;;;6.90;78.40;;;;;;1790951;80;21045;-57
2022/03/27 00:05:31;;;;;;;7.85;4.28;;;7.00;78.50;;;;;;1790860;79;21049;-58
2022/03/27 00:08:00;;;;;;;6.08;4.20;;;7.00;78.50;;;;;;1790938;80;21076;-57
2022/03/27 00:10:29;;;;;;;5.97;4.75;;;7.00;78.50;;;;;;1785575;80;21044;-58
2022/03/27 00:12:59;;;;;;;4.80;2.50;;;7.00;78.60;;;;;;1790980;80;21092;-58
2022/03/27 00:15:28;;;;;;;4.30;2.92;;;7.00;78.90;;;;;;1790965;80;21037;-58
2022/03/27 00:17:58;;;;;;;4.65;3.02;;;7.00;78.80;;;;;;1790954;80;21111;-57
2022/03/27 00:20:27;;;;;;;6.03;3.70;;;6.90;78.60;;;;;;1790898;79;21077;-57
2022/03/27 00:22:56;;;;;;;7.72;4.53;;;7.00;78.50;;;;;;1790922;80;21119;-57
2022/03/27 00:25:26;;;;;;;6.53;4.15;;;7.00;78.40;;;;;;1790867;80;21045;-58
2022/03/27 00:27:55;;;;;;;10.50;4.35;;;7.00;78.40;;;;;;1790884;80;21088;-58
2022/03/27 00:30:24;;;;;;;10.30;4.15;;;7.00;78.30;;;;;;1790806;80;21028;-58
2022/03/27 00:32:54;;;;;;;7.92;4.62;;;7.00;78.40;;;;;;1790977;80;21126;-57
2022/03/27 00:35:24;;;;;;;12.35;3.30;;;7.00;78.20;;;;;;1790951;80;21133;-57
2022/03/27 00:37:53;;;;;;;9.93;4.70;;;7.00;78.10;;;;;;1790983;80;21045;-57
2022/03/27 00:40:23;;;;;;;8.58;5.20;;;7.00;77.90;;;;;;1790798;80;21045;-58
2022/03/27 00:42:52;;;;;;;6.35;3.67;;;7.00;77.60;;;;;;1791006;80;21107;-57
2022/03/27 00:45:22;;;;;;;9.93;4.30;;;7.10;77.60;;;;;;1790930;80;21119;-58
2022/03/27 00:47:51;;;;;;;10.68;4.85;;;7.00;77.60;;;;;;1790813;80;21111;-57
2022/03/27 00:50:21;;;;;;;7.97;3.62;;;7.10;77.60;;;;;;1791644;80;21071;-57
2022/03/27 00:52:50;;;;;;;7.25;4.17;;;7.10;77.80;;;;;;1790819;80;21061;-57
2022/03/27 00:55:19;;;;;;;6.22;4.03;;;7.00;77.70;;;;;;1790852;79;21095;-57
2022/03/27 00:57:48;;;;;;;7.83;4.25;;;7.00;77.70;;;;;;1790947;79;21171;-57
2022/03/27 01:00:38;;;;;;;12.00;3.90;;;7.10;77.70;;;;;;1790841;80;21081;-57
2022/03/27 01:03:11;;;;;;;9.95;4.65;;;7.10;77.60;;;;;;1790404;80;21049;-58
2022/03/27 01:05:41;;;;;;;9.75;5.20;;;7.10;77.50;;;;;;1790848;80;21491;-57
2022/03/27 01:08:13;;;;;;;17.80;5.55;;;7.00;77.40;;;;;;1790704;79;21187;-57
2022/03/27 01:10:43;;;;;;;6.28;4.03;;;7.10;77.50;;;;;;1790957;80;21045;-57
2022/03/27 01:13:20;;;;;;;4.62;2.92;;;7.10;77.40;;;;;;1790826;80;21119;-57
2022/03/27 01:15:54;;;;;;;10.05;5.10;;;7.10;77.60;;;;;;1790838;80;21615;-57
2022/03/27 01:18:23;;;;;;;5.83;3.75;;;7.10;77.70;;;;;;1780999;80;21139;-57
2022/03/27 01:20:53;;;;;;;11.53;4.08;;;7.10;77.70;;;;;;1789372;79;21049;-57
2022/03/27 01:23:23;;;;;;;8.60;2.83;;;7.10;77.70;;;;;;1790934;80;21483;-58
2022/03/27 01:25:52;;;;;;;6.62;4.50;;;7.10;77.90;;;;;;1791008;79;21111;-58
2022/03/27 01:28:21;;;;;;;5.28;3.05;;;7.10;77.90;;;;;;1790909;80;21103;-57
2022/03/27 01:30:51;;;;;;;6.17;3.90;;;7.10;77.80;;;;;;1790896;79;21617;-57
2022/03/27 01:33:20;;;;;;;8.95;4.87;;;7.10;78.00;;;;;;1790962;80;21103;-58
2022/03/27 01:35:52;;;;;;;9.55;4.90;;;7.10;78.30;;;;;;1791015;80;21178;-57
2022/03/27 01:38:20;;;;;;;6.22;2.83;;;7.10;78.10;;;;;;1787882;80;21037;-58
2022/03/27 01:40:50;;;;;;;7.50;4.08;;;7.10;78.00;;;;;;1791043;79;21088;-57
2022/03/27 01:43:19;;;;;;;6.90;3.35;;;7.10;78.10;;;;;;1791020;80;21096;-58
2022/03/27 01:45:49;;;;;;;9.38;5.35;;;7.10;78.50;;;;;;1791038;80;21053;-58
2022/03/27 01:48:18;;;;;;;4.12;3.65;;;7.10;78.30;;;;;;1790942;80;21053;-57
2022/03/27 01:50:59;;;;;;;5.50;3.80;;;7.10;78.40;;;;;;1790938;79;21045;-57
2022/03/27 01:53:28;;;;;;;4.95;3.83;;;7.10;78.20;;;;;;1790929;80;21049;-57
2022/03/27 01:55:57;;;;;;;6.25;3.60;;;7.10;78.20;;;;;;1790920;79;21069;-58
2022/03/27 01:58:27;;;;;;;7.37;4.83;;;7.10;78.10;;;;;;1790928;80;21053;-57
2022/03/27 02:00:56;;;;;;;10.68;3.08;;;7.20;78.00;;;;;;1791018;80;21182;-57
2022/03/27 02:03:28;;;;;;;11.40;4.25;;;7.20;77.90;;;;;;1790901;80;21142;-57
2022/03/27 02:05:57;;;;;;;7.72;4.00;;;7.20;77.90;;;;;;1790946;80;21041;-57
2022/03/27 02:08:26;;;;;;;7.95;4.20;;;7.20;77.80;;;;;;1790711;80;21490;-58
2022/03/27 02:10:55;;;;;;;10.70;4.90;;;7.20;77.40;;;;;;1790929;80;21053;-57
2022/03/27 02:13:25;;;;;;;6.25;4.45;;;7.20;77.40;;;;;;1790917;80;21056;-57
2022/03/27 02:15:57;;;;;;;11.80;3.80;;;7.20;76.80;;;;;;1790920;80;21052;-58
2022/03/27 02:18:26;;;;;;;4.90;2.95;;;7.30;76.50;;;;;;1790859;80;21044;-58
2022/03/27 02:20:56;;;;;;;13.25;4.55;;;7.30;76.50;;;;;;1791009;80;21123;-57
2022/03/27 02:23:26;;;;;;;5.05;3.10;;;7.30;76.80;;;;;;1790861;79;21025;-57
2022/03/27 02:25:55;;;;;;;9.13;4.72;;;7.30;76.80;;;;;;1791012;80;21127;-57
2022/03/27 02:28:25;;;;;;;8.45;3.83;;;7.40;76.30;;;;;;1790970;79;21130;-58
2022/03/27 02:30:55;;;;;;;10.53;3.77;;;7.40;76.30;;;;;;1790943;80;21049;-57
2022/03/27 02:33:25;;;;;;;4.10;3.05;;;7.40;76.30;;;;;;1790812;80;21048;-58
2022/03/27 02:35:54;;;;;;;6.90;3.60;;;7.40;76.40;;;;;;1790887;80;21612;-57
2022/03/27 02:38:24;;;;;;;7.03;4.15;;;7.40;76.60;;;;;;1790973;80;21115;-57
2022/03/27 02:40:53;;;;;;;7.05;3.67;;;7.40;76.50;;;;;;1790902;80;21029;-57
2022/03/27 02:43:22;;;;;;;7.58;5.03;;;7.50;76.10;;;;;;1791025;80;21049;-57
2022/03/27 02:45:53;;;;;;;10.90;4.53;;;7.40;76.50;;;;;;1790936;80;21058;-58
2022/03/27 02:48:22;;;;;;;9.98;5.28;;;7.50;76.90;;;;;;1791041;80;21115;-57
2022/03/27 02:50:51;;;;;;;7.25;3.12;;;7.50;76.80;;;;;;1791009;80;21115;-57
2022/03/27 02:53:21;;;;;;;12.55;4.42;;;7.50;76.60;;;;;;1791085;80;21096;-57
2022/03/27 02:55:50;;;;;;;6.05;3.40;;;7.50;76.60;;;;;;1791936;80;21065;-58
2022/03/27 02:58:20;;;;;;;9.35;5.53;;;7.50;76.70;;;;;;1790989;80;21048;-57
2022/03/27 03:00:50;;;;;;;5.37;2.90;;;7.50;76.50;;;;;;1790992;80;21139;-57
2022/03/27 03:03:20;;;;;;;8.88;4.15;;;7.50;76.90;;;;;;1790849;80;21077;-57
2022/03/27 03:05:50;;;;;;;13.62;4.37;;;7.50;77.20;;;;;;1790983;79;21049;-57
2022/03/27 03:08:19;;;;;;;10.70;5.75;;;7.50;77.20;;;;;;1790961;80;21510;-57
2022/03/27 03:10:49;;;;;;;20.88;5.00;;;7.50;77.20;;;;;;1790905;80;21032;-57
2022/03/27 03:13:19;;;;;;;16.00;5.87;;;7.50;77.40;;;;;;1790966;80;21131;-57
2022/03/27 03:15:48;;;;;;;11.63;5.33;;;7.50;77.30;;;;;;1790920;79;21056;-57
2022/03/27 03:18:18;;;;;;;6.65;4.22;;;7.60;76.70;;;;;;1791022;80;21049;-57
2022/03/27 03:20:48;;;;;;;14.65;5.17;;;7.60;77.00;;;;;;1791027;80;21123;-57
2022/03/27 03:23:17;;;;;;;7.97;4.70;;;7.60;77.00;;;;;;1790921;80;21045;-57
2022/03/27 03:25:47;;;;;;;7.78;4.53;;;7.60;76.30;;;;;;1790846;80;21029;-57
2022/03/27 03:28:16;;;;;;;7.83;4.72;;;7.60;76.00;;;;;;1790940;80;21138;-57
2022/03/27 03:30:45;;;;;;;8.28;5.08;;;7.70;76.30;;;;;;1790953;80;21119;-57
2022/03/27 03:33:15;;;;;;;6.67;4.85;;;7.70;76.30;;;;;;1790980;80;21065;-57
2022/03/27 03:35:44;;;;;;;9.75;5.47;;;7.60;76.40;;;;;;1790928;80;21053;-57
2022/03/27 03:38:13;;;;;;;14.68;5.62;;;7.70;76.60;;;;;;1790831;80;21045;-57
2022/03/27 03:40:43;;;;;;;12.60;6.72;;;7.70;76.70;;;;;;1790959;80;21569;-57
2022/03/27 03:43:13;;;;;;;11.73;4.65;;;7.70;76.80;;;;;;1790885;80;21104;-57
2022/03/27 03:45:42;;;;;;;11.38;6.50;;;7.70;77.20;;;;;;1791002;80;21045;-57
2022/03/27 03:48:12;;;;;;;9.15;5.28;;;7.70;77.30;;;;;;1790930;80;21103;-57
2022/03/27 03:50:41;;;;;;;11.75;5.75;;;7.70;77.30;;;;;;1790845;79;21076;-57
2022/03/27 03:53:10;;;;;;;10.72;6.28;;;7.70;77.40;;;;;;1790924;80;21310;-57
2022/03/27 03:55:40;;;;;;;10.88;5.65;;;7.80;77.40;;;;;;1790971;79;21105;-57
2022/03/27 03:58:09;;;;;;;11.97;7.97;;;7.80;77.30;;;;;;1790960;80;21045;-57
2022/03/27 04:00:39;;;;;;;7.67;5.35;;;7.80;77.20;;;;;;1785082;80;21025;-57
2022/03/27 04:03:08;;;;;;;12.03;7.28;;;7.80;77.10;;;;;;1790899;79;21060;-57
2022/03/27 04:05:38;;;;;;;12.18;6.00;;;7.80;77.10;;;;;;1790858;79;21053;-57
2022/03/27 04:08:07;;;;;;;11.93;7.33;;;7.80;77.30;;;;;;1790814;80;21119;-57
2022/03/27 04:10:36;;;;;;;14.53;7.83;;;7.90;76.40;;;;;;1790964;79;21118;-57
2022/03/27 04:13:06;;;;;;;14.45;7.08;;;7.90;76.50;;;;;;1790933;80;21480;-58
2022/03/27 04:15:37;;;;;;;16.80;7.22;;;7.90;76.00;;;;;;1790842;80;21052;-57
2022/03/27 04:18:07;;;;;;;10.98;7.03;;;8.00;76.40;;;;;;1790865;80;21115;-58
2022/03/27 04:20:36;;;;;;;18.35;9.80;;;8.00;76.80;;;;;;1790916;80;21044;-57
2022/03/27 04:23:06;;;;;;;15.85;8.70;;;8.00;75.80;;;;;;1790889;80;21119;-58
2022/03/27 04:25:35;;;;;;;9.85;6.67;;;8.10;76.00;;;;;;1790896;79;21045;-57
2022/03/27 04:28:09;;;;;;;17.30;11.35;;;8.10;75.70;;;;;;1790878;79;21099;-57
2022/03/27 04:30:38;;;;;;;16.67;9.88;;;8.10;75.80;;;;;;1790983;80;21115;-57
2022/03/27 04:33:08;;;;;;;14.68;8.83;;;8.10;75.60;;;;;;1790884;80;21053;-57
2022/03/27 04:35:38;;;;;;;15.00;7.37;;;8.10;75.40;;;;;;1790850;80;21053;-57
2022/03/27 04:38:07;;;;;;;17.95;8.40;;;8.10;75.90;;;;;;1790944;80;21119;-57
2022/03/27 04:40:36;;;;;;;11.63;7.42;;;8.20;75.30;;;;;;1790929;79;21029;-57
2022/03/27 04:43:06;;;;;;;15.95;8.78;;;8.20;75.80;;;;;;1790799;80;21069;-58
2022/03/27 04:45:36;;;;;;;8.45;5.85;;;8.20;76.00;;;;;;1790846;80;21073;-58
2022/03/27 04:48:06;;;;;;;15.58;6.72;;;8.20;76.00;;;;;;1790892;80;21069;-58
2022/03/27 04:50:35;;;;;;;11.28;6.62;;;8.20;76.10;;;;;;1790860;80;21048;-58
2022/03/27 04:53:04;;;;;;;10.98;5.97;;;8.20;75.90;;;;;;1790939;79;21028;-57
2022/03/27 04:55:34;;;;;;;17.80;9.30;;;8.20;76.00;;;;;;1791067;80;21052;-58
2022/03/27 04:58:03;;;;;;;11.45;7.22;;;8.20;75.90;;;;;;1791020;80;21021;-58
2022/03/27 05:00:32;;;;;;;11.12;8.08;;;8.20;76.00;;;;;;1791091;80;21052;-58
2022/03/27 05:03:02;;;;;;;21.27;8.53;;;8.20;76.10;;;;;;1791062;80;21123;-58
2022/03/27 05:05:31;;;;;;;17.10;7.62;;;8.30;76.20;;;;;;1791121;80;21100;-58
2022/03/27 05:08:01;;;;;;;17.87;8.10;;;8.30;76.00;;;;;;1790992;79;21117;-57
2022/03/27 05:10:30;;;;;;;10.98;7.95;;;8.30;76.20;;;;;;1791006;79;21061;-58
2022/03/27 05:12:59;;;;;;;16.37;7.42;;;8.30;76.30;;;;;;1791065;80;21049;-58
2022/03/27 05:15:29;;;;;;;10.80;7.53;;;8.30;76.60;;;;;;1791005;80;21025;-58
2022/03/27 05:17:59;;;;;;;14.23;7.33;;;8.30;76.50;;;;;;1791002;80;21077;-58
2022/03/27 05:20:30;;;;;;;12.50;6.67;;;8.30;75.90;;;;;;1790935;79;21180;-58
2022/03/27 05:23:00;;;;;;;8.78;6.22;;;8.30;76.00;;;;;;1790922;80;21048;-58
2022/03/27 05:25:29;;;;;;;12.90;6.33;;;8.30;76.30;;;;;;1790922;79;21111;-57
2022/03/27 05:27:59;;;;;;;17.57;7.75;;;8.40;76.30;;;;;;1790899;80;21032;-58
2022/03/27 05:30:30;;;;;;;17.73;7.30;;;8.40;76.00;;;;;;1790896;80;21138;-58
2022/03/27 05:32:59;;;;;;;11.43;6.17;;;8.40;75.90;;;;;;1790936;80;21163;-58
2022/03/27 05:35:29;;;;;;;10.38;5.30;;;8.40;76.00;;;;;;1791018;80;21049;-57
2022/03/27 05:37:58;;;;;;;10.72;6.37;;;8.40;76.00;;;;;;1791048;80;21145;-58
2022/03/27 05:40:28;;;;;;;21.45;8.13;;;8.40;76.00;;;;;;1791217;80;21072;-58
2022/03/27 05:42:57;;;;;;;12.80;5.80;;;8.50;76.00;;;;;;1790939;79;21028;-58
2022/03/27 05:45:27;;;;;;;10.03;5.92;;;8.50;75.70;;;;;;1791928;80;21092;-58
2022/03/27 05:47:56;;;;;;;12.00;5.53;;;8.50;75.90;;;;;;1790967;79;21120;-58
2022/03/27 05:50:26;;;;;;;6.33;5.35;;;8.50;76.00;;;;;;1791155;80;21108;-58
2022/03/27 05:52:57;;;;;;;7.90;5.03;;;8.40;76.20;;;;;;1790987;80;21100;-58
2022/03/27 05:55:26;;;;;;;11.65;6.87;;;8.40;76.70;;;;;;1791036;80;21104;-58
2022/03/27 05:57:56;;;;;;;10.55;4.85;;;8.40;76.90;;;;;;1790977;80;21036;-58
2022/03/27 06:00:26;;;;;;;8.03;4.92;;;8.40;77.70;;;;;;1791066;79;21045;-58
2022/03/27 06:02:56;;;;;;;9.80;4.72;;;8.40;78.60;;;;;;1790984;80;21392;-57
2022/03/27 06:05:25;;;;;;;13.13;7.65;;;8.40;79.20;;;;;;1790966;80;21047;-58
2022/03/27 06:07:57;;;;;;;12.53;5.15;;;8.30;79.20;;;;;;1790877;80;21041;-58
2022/03/27 06:10:35;;;;;;;11.80;5.12;;;8.30;80.20;;;;;;1791088;79;21108;-58
2022/03/27 06:13:05;;;;;;;10.15;5.12;;;8.20;80.90;;;;;;1790978;79;21049;-58
2022/03/27 06:15:35;;;;;;;6.55;4.90;;;8.20;81.50;;;;;;1791084;79;21045;-58
2022/03/27 06:18:04;;;;;;;12.07;5.87;;;8.10;81.60;;;;;;1791046;80;21519;-58
2022/03/27 06:20:34;;;;;;;12.28;5.55;;;8.10;81.60;;;;;;1791102;79;21033;-58
2022/03/27 06:23:03;;;;;;;14.13;7.70;;;8.10;82.80;;;;;;1790864;79;21057;-58
2022/03/27 06:25:33;;;;;;;8.55;4.45;;;8.00;82.70;;;;;;1790877;80;21080;-58
2022/03/27 06:28:04;;;;;;;13.50;6.47;;;8.10;83.20;;;;;;1790958;79;21120;-58
2022/03/27 06:30:34;;;;;;;4.15;3.33;;;8.10;82.70;;;;;;1790947;80;21096;-58
2022/03/27 06:33:04;;;;;;;5.15;3.08;;;8.10;83.90;;;;;;1790897;80;21056;-58
2022/03/27 06:35:34;;;;;;;10.15;4.08;;;8.00;84.10;;;;;;1791062;80;21049;-58
2022/03/27 06:38:03;;;;;;;12.25;6.08;;;8.00;84.30;;;;;;1790948;79;21154;-58
2022/03/27 06:40:32;;;;;;;8.73;3.33;;;8.00;83.70;;;;;;1791110;80;21096;-58
2022/03/27 06:43:02;;;;;;;15.45;5.37;;;8.00;83.70;;;;;;1790804;80;21155;-58
2022/03/27 06:45:32;;;;;;;10.75;4.35;;;8.00;83.60;;;;;;1790869;80;21138;-58
2022/03/27 06:48:02;;;;;;;8.98;4.42;;;8.00;83.60;;;;;;1790878;80;21088;-58
2022/03/27 06:50:32;;;;;;;8.48;4.78;;;8.00;84.00;;;;;;1790976;80;21143;-58
2022/03/27 06:53:02;;;;;;;5.08;3.22;;;8.00;83.80;;;;;;1790943;80;21111;-58
2022/03/27 06:55:32;;;;;;;9.28;5.65;;;8.00;84.30;;;;;;1790890;80;21049;-58
2022/03/27 06:58:01;;;;;;;7.75;4.75;;;8.00;84.30;;;;;;1790868;80;21043;-58
2022/03/27 07:03:20;;;;;;;7.47;4.60;;;8.00;85.40;;;;;;1790951;80;21060;-58
2022/03/27 07:05:49;;;;;;;10.70;5.08;;;8.00;85.20;;;;;;1790925;80;21045;-58
2022/03/27 07:08:23;;;;;;;9.55;4.53;;;8.10;85.00;;;;;;1790944;80;21049;-58
2022/03/27 07:10:51;;;;;;;9.75;4.30;;;8.10;85.00;;;;;;1789935;80;21511;-58
2022/03/27 07:13:21;;;;;;;13.28;6.45;;;8.10;85.60;;;;;;1790848;79;21025;-58
2022/03/27 07:15:51;;;;;;;9.95;5.25;;;8.10;85.00;;;;;;1790922;79;21044;-58
2022/03/27 07:18:20;;;;;;;14.28;5.80;;;8.10;85.20;;;;;;1790887;80;21045;-58
2022/03/27 07:20:50;;;;;;;10.80;3.55;;;8.10;85.50;;;;;;1790973;80;21041;-58
2022/03/27 07:23:21;;;;;;;14.43;6.05;;;8.10;85.40;;;;;;1790797;79;21123;-57
2022/03/27 07:25:53;;;;;;;12.10;5.60;;;8.10;85.00;;;;;;1790875;80;21056;-57
2022/03/27 07:28:24;;;;;;;10.18;6.33;;;8.00;85.60;;;;;;1790883;80;21130;-58
2022/03/27 07:30:54;;;;;;;7.42;5.30;;;8.10;85.40;;;;;;1790924;79;21083;-58
2022/03/27 07:33:23;;;;;;;7.92;3.50;;;8.10;85.80;;;;;;1790786;80;21166;-58
2022/03/27 07:35:53;;;;;;;11.20;5.10;;;8.10;86.00;;;;;;1790824;79;21080;-58
2022/03/27 07:38:23;;;;;;;5.10;4.08;;;8.10;86.00;;;;;;1790900;80;21123;-57
2022/03/27 07:40:52;;;;;;;8.33;5.17;;;8.10;86.00;;;;;;1790965;80;21053;-58
2022/03/27 07:43:21;;;;;;;8.40;4.53;;;8.10;86.00;;;;;;1790912;80;21053;-57
2022/03/27 07:45:51;;;;;;;13.28;4.58;;;8.10;86.30;;;;;;1790961;80;21041;-58
2022/03/27 07:48:20;;;;;;;8.40;3.67;;;8.10;86.30;;;;;;1790854;80;21029;-58
2022/03/27 07:50:54;;;;;;;16.45;6.87;;;8.10;86.30;;;;;;1790891;80;21111;-57
2022/03/27 07:53:21;;;;;;;13.18;5.42;;;8.10;86.30;;;;;;1790658;80;21068;-58
2022/03/27 07:55:50;;;;;;;15.20;6.35;;;8.10;86.50;;;;;;1790979;80;21598;-57
2022/03/27 07:58:20;;;;;;;12.20;5.35;;;8.10;86.20;;;;;;1790954;79;21103;-58
2022/03/27 08:00:49;;;;;;;5.22;3.30;;;8.10;86.60;;;;;;1790932;80;21119;-57
2022/03/27 08:03:19;;;;;;;13.78;5.70;;;8.10;86.80;;;;;;1790999;80;21069;-58
2022/03/27 08:05:48;;;;;;;8.60;3.90;;;8.20;86.60;;;;;;1790882;79;21049;-57
2022/03/27 08:08:17;;;;;;;13.28;5.40;;;8.10;86.90;;;;;;1790728;80;21029;-58
2022/03/27 08:10:48;;;;;;;9.65;5.00;;;8.10;86.60;;;;;;1790733;79;21048;-57
2022/03/27 08:13:17;;;;;;;13.85;6.95;;;8.20;86.80;;;;;;1790694;80;21049;-57
2022/03/27 08:15:46;;;;;;;13.85;5.45;;;8.10;86.70;;;;;;1790846;80;21060;-58
2022/03/27 08:18:16;;;;;;;12.90;7.70;;;8.10;87.00;;;;;;1790809;80;21041;-58
2022/03/27 08:20:45;;;;;;;14.05;5.22;;;8.20;86.50;;;;;;1790734;80;21049;-58
2022/03/27 08:23:15;;;;;;;8.20;4.10;;;8.20;86.80;;;;;;1790808;80;21073;-57
2022/03/27 08:28:32;;;;;;;8.13;5.10;;;8.20;86.90;;;;;;1790840;79;21085;-57
2022/03/27 08:31:02;;;;;;;15.65;7.05;;;8.20;86.80;;;;;;1790682;80;21115;-58
2022/03/27 08:33:31;;;;;;;11.03;4.87;;;8.20;86.90;;;;;;1790912;80;21033;-57
2022/03/27 08:36:00;;;;;;;18.45;4.95;;;8.20;87.10;;;;;;1790917;80;21049;-58
2022/03/27 08:38:30;;;;;;;12.25;7.00;;;8.20;87.70;;;;;;1790682;79;21048;-57
2022/03/27 08:41:01;;;;;;;9.03;4.37;;;8.20;87.90;;;;;;1790826;80;21048;-58
2022/03/27 08:43:33;;;;;;;21.15;8.63;;;8.10;88.00;;;;;;1790677;80;21115;-57
2022/03/27 08:46:02;;;;;;;14.25;5.87;;;8.10;87.70;;;;;;1790698;80;21100;-58
2022/03/27 08:48:33;;;;;;;12.33;7.22;;;8.10;88.00;;;;;;1790727;80;21029;-58
2022/03/27 08:51:07;;;;;;;15.28;7.67;;;8.10;88.30;;;;;;1790706;80;21175;-58
2022/03/27 08:54:02;;;;;;;16.80;7.60;;;8.10;88.30;;;;;;1791040;80;21488;-58
2022/03/27 08:56:34;;;;;;;9.57;5.97;;;8.10;88.50;;;;;;1791074;80;21079;-57
2022/03/27 08:59:11;;;;;;;6.53;4.75;;;8.10;88.80;;;;;;1790951;79;21147;-58
2022/03/27 09:01:41;;;;;;;11.08;5.87;;;8.00;89.30;;;;;;1790925;80;21056;-58
2022/03/27 09:04:13;;;;;;;10.70;5.78;;;8.00;88.50;;;;;;1790819;80;21123;-58
2022/03/27 09:06:41;;;;;;;12.78;5.50;;;8.00;88.80;;;;;;1790805;80;21053;-58
2022/03/27 09:09:11;;;;;;;13.43;5.50;;;8.00;88.60;;;;;;1790863;80;21045;-57
2022/03/27 09:11:41;;;;;;;7.40;3.50;;;8.00;88.80;;;;;;1790750;80;21061;-57
2022/03/27 09:14:11;;;;;;;15.40;8.50;;;8.00;88.80;;;;;;1790837;79;21029;-57
2022/03/27 09:17:02;;;;;;;6.62;4.60;;;8.00;88.80;;;;;;1790798;80;21115;-56
2022/03/27 09:19:48;;;;;;;11.45;5.33;;;8.00;89.00;;;;;;1788701;80;21053;-57
2022/03/27 09:22:21;;;;;;;7.92;4.83;;;8.00;89.40;;;;;;1790617;79;21141;-58
2022/03/27 09:24:58;;;;;;;6.45;5.33;;;8.00;89.40;;;;;;1790789;80;21057;-58
2022/03/27 09:27:32;;;;;;;13.32;4.70;;;8.00;89.70;;;;;;1790716;79;21049;-57
2022/03/27 09:30:07;;;;;;;5.70;4.27;;;8.00;89.20;;;;;;1790928;80;21146;-57
2022/03/27 09:32:39;;;;;;;11.97;6.35;;;8.00;89.20;;;;;;1790414;80;21753;-58
2022/03/27 09:35:13;;;;;;;14.23;6.87;;;8.00;88.90;;;;;;1790823;79;21123;-57
2022/03/27 09:37:47;;;;;;;10.82;5.67;;;8.00;88.90;;;;;;1790987;80;21041;-57
2022/03/27 09:40:17;;;;;;;12.50;6.87;;;8.00;89.10;;;;;;1790918;80;21047;-58
2022/03/27 09:42:47;;;;;;;12.15;7.05;;;8.00;88.70;;;;;;1791005;80;21095;-58
2022/03/27 09:45:23;;;;;;;12.85;6.33;;;8.10;88.60;;;;;;1791017;80;21119;-57
2022/03/27 09:47:53;;;;;;;5.90;4.25;;;8.10;88.90;;;;;;1791076;80;21127;-58
2022/03/27 09:50:40;;;;;;;5.72;4.53;;;8.00;88.80;;;;;;1791076;80;21046;-58
2022/03/27 09:53:31;;;;;;;12.58;5.80;;;8.00;89.00;;;;;;1791019;80;21139;-58
2022/03/27 09:56:03;;;;;;;11.03;6.95;;;8.00;88.90;;;;;;1791009;79;21017;-58
2022/03/27 09:58:41;;;;;;;9.38;3.85;;;8.00;88.70;;;;;;1791023;80;21037;-58
2022/03/27 10:01:26;;;;;;;11.78;6.35;;;8.10;89.50;;;;;;1791124;80;21142;-58
2022/03/27 10:04:01;;;;;;;13.30;7.08;;;8.10;89.40;;;;;;1789959;80;21073;-57
2022/03/27 10:06:39;;;;;;;18.48;10.20;;;8.10;89.50;;;;;;1791016;80;21057;-57
2022/03/27 10:09:10;;;;;;;11.80;8.58;;;8.10;89.30;;;;;;1790978;80;21091;-57
2022/03/27 10:11:41;;;;;;;11.50;9.80;;;8.10;89.40;;;;;;1791051;80;21068;-58
2022/03/27 10:14:11;;;;;;;13.93;7.78;;;8.10;89.30;;;;;;1790918;80;21077;-58
2022/03/27 10:16:46;;;;;;;11.90;6.60;;;8.10;89.20;;;;;;1790959;80;21104;-58
2022/03/27 10:19:36;;;;;;;14.93;8.20;;;8.10;89.40;;;;;;1791043;79;21526;-57
2022/03/27 10:22:07;;;;;;;14.90;8.88;;;8.10;89.50;;;;;;1789217;80;21113;-57
2022/03/27 10:24:38;;;;;;;12.30;8.03;;;8.10;89.40;;;;;;1790955;80;21065;-57
2022/03/27 10:27:08;;;;;;;15.75;8.23;;;8.20;89.70;;;;;;1790850;80;21569;-58
2022/03/27 10:29:39;;;;;;;11.90;7.17;;;8.10;89.50;;;;;;1790894;80;21045;-58
2022/03/27 10:32:11;;;;;;;16.12;8.68;;;8.10;89.70;;;;;;1790968;79;21581;-57
2022/03/27 10:34:44;;;;;;;11.83;7.78;;;8.10;89.60;;;;;;1790845;80;21029;-57
2022/03/27 10:37:16;;;;;;;4.62;3.45;;;8.10;90.10;;;;;;1790466;80;21080;-58
2022/03/27 10:40:10;;;;;;;9.00;3.77;;;8.10;85.50;;;;;;1790191;80;21174;-58
2022/03/27 10:42:56;;;;;;;11.90;4.17;;;7.80;81.60;;;;;;1790882;80;21041;-57
2022/03/27 10:45:25;;;;;;;9.40;4.10;;;7.60;82.00;;;;;;1790784;80;21124;-58
2022/03/27 10:48:14;;;;;;;9.30;4.25;;;7.30;82.80;;;;;;1790863;80;21064;-57
2022/03/27 10:50:55;;;;;;;9.48;5.20;;;7.20;83.90;;;;;;1790935;80;21032;-57
2022/03/27 10:53:26;;;;;;;9.60;4.55;;;7.00;84.40;;;;;;1790871;80;21103;-58
2022/03/27 10:55:59;;;;;;;10.08;5.08;;;6.90;84.70;;;;;;1790952;80;21135;-57
2022/03/27 10:58:32;;;;;;;5.58;3.52;;;6.80;85.10;;;;;;1790885;80;21045;-57
2022/03/27 11:01:03;;;;;;;4.62;3.30;;;6.80;84.90;;;;;;1790964;80;21033;-57
2022/03/27 11:03:51;;;;;;;6.42;3.47;;;6.70;84.70;;;;;;1790830;79;21073;-57
2022/03/27 11:06:28;;;;;;;14.15;4.00;;;6.70;84.70;;;;;;1790851;80;21116;-57
2022/03/27 11:09:00;;;;;;;6.85;3.27;;;6.60;84.20;;;;;;1791026;79;21129;-58
2022/03/27 11:11:40;;;;;;;5.90;3.92;;;6.60;84.10;;;;;;1790857;79;21111;-57
2022/03/27 11:14:10;;;;;;;7.30;4.03;;;6.50;84.80;;;;;;1790862;80;21487;-57
2022/03/27 11:17:08;;;;;;;3.55;2.25;;;6.50;84.90;;;;;;1790778;80;21049;-57
2022/03/27 11:19:48;;;;;;;6.97;2.17;;;6.50;84.50;;;;;;1790940;79;21060;-57
2022/03/27 11:22:51;;;;;;;6.62;3.75;;;6.50;83.90;;;;;;1790935;80;21450;-57
2022/03/27 11:25:45;;;;;;;8.35;4.45;;;6.40;83.30;;;;;;1784461;80;21077;-57
2022/03/27 11:28:17;;;;;;;10.25;6.05;;;6.40;83.60;;;;;;1791180;80;21135;-57
2022/03/27 11:30:56;;;;;;;12.60;6.10;;;6.40;83.80;;;;;;1790847;80;21178;-57
2022/03/27 11:33:29;;;;;;;6.20;3.92;;;6.40;84.00;;;;;;1790884;80;21076;-57
2022/03/27 11:36:11;;;;;;;9.75;3.92;;;6.40;83.00;;;;;;1790942;79;21052;-57
2022/03/27 11:38:58;;;;;;;8.65;3.52;;;6.30;82.50;;;;;;1790947;80;21041;-57
2022/03/27 11:41:38;;;;;;;4.67;2.22;;;6.30;81.40;;;;;;1790950;80;21084;-58
2022/03/27 11:47:24;;;;;;;6.05;1.70;;;6.30;81.70;;;;;;1790841;79;21186;-58
2022/03/27 11:49:51;;;;;;;3.47;1.70;;;6.30;78.90;;;;;;1789605;80;21049;-58
2022/03/27 11:52:22;;;;;;;4.05;1.42;;;6.30;79.30;;;;;;1790791;80;21111;-58
2022/03/27 11:54:52;;;;;;;5.55;1.20;;;6.30;78.50;;;;;;1790959;80;21053;-58
2022/03/27 11:57:21;;;;;;;5.65;1.90;;;6.30;78.30;;;;;;1788925;80;21503;-58
2022/03/27 11:59:53;;;;;;;5.42;1.87;;;6.40;79.00;;;;;;1790783;80;21116;-58
2022/03/27 12:02:22;;;;;;;3.17;1.42;;;6.40;76.60;;;;;;1790829;79;21045;-58
2022/03/27 12:04:56;;;;;;;2.70;1.60;;;6.40;76.60;;;;;;1790835;79;21049;-58
2022/03/27 12:07:27;;;;;;;1.85;1.15;;;6.40;75.70;;;;;;1791083;80;21511;-58
2022/03/27 12:10:01;;;;;;;5.50;3.15;;;6.50;74.70;;;;;;1790835;80;21147;-58
2022/03/27 12:12:32;;;;;;;2.62;1.07;;;6.50;75.70;;;;;;1790890;80;21056;-58
2022/03/27 12:15:09;;;;;;;3.50;1.45;;;6.60;72.00;;;;;;1790897;80;21061;-58
2022/03/27 12:17:36;;;;;;;1.52;1.22;;;6.60;74.20;;;;;;1790406;80;21111;-58
2022/03/27 12:20:10;;;;;;;2.08;1.62;;;6.60;72.30;;;;;;1788087;80;21539;-58
2022/03/27 12:22:53;;;;;;;3.40;1.50;;;6.70;73.40;;;;;;1790765;80;21080;-58
2022/03/27 12:25:25;;;;;;;1.92;1.30;;;6.70;74.60;;;;;;1790912;80;21038;-58
2022/03/27 12:30:54;;;;;;;1.98;1.50;;;6.80;73.10;;;;;;1790931;79;21076;-58
2022/03/27 12:33:24;;;;;;;6.30;1.80;;;6.80;74.50;;;;;;1790741;79;21053;-58
2022/03/27 12:36:10;;;;;;;8.50;2.05;;;6.80;73.60;;;;;;1790811;80;21159;-58
2022/03/27 12:38:40;;;;;;;3.45;1.72;;;6.80;74.10;;;;;;1790774;80;21068;-58
2022/03/27 12:41:10;;;;;;;7.50;1.92;;;6.80;74.10;;;;;;1790868;80;21161;-58
2022/03/27 12:43:42;;;;;;;6.40;3.35;;;6.80;74.90;;;;;;1790833;79;21128;-58
2022/03/27 12:46:23;;;;;;;3.02;1.30;;;6.90;75.20;;;;;;1788135;80;21049;-57
2022/03/27 12:48:59;;;;;;;3.77;1.40;;;6.90;74.90;;;;;;1790822;80;21119;-57
2022/03/27 12:51:28;;;;;;;2.58;1.37;;;6.90;73.80;;;;;;1790741;80;21053;-57
2022/03/27 12:54:03;;;;;;;5.53;1.45;;;6.90;74.20;;;;;;1790860;79;21064;-57
2022/03/27 12:56:33;;;;;;;4.03;2.10;;;7.00;75.20;;;;;;1790914;80;21111;-57
2022/03/27 12:59:23;;;;;;;3.27;1.47;;;6.90;74.90;;;;;;1790853;79;21131;-57
2022/03/27 13:01:52;;;;;;;5.42;1.10;;;7.00;73.60;;;;;;1790869;80;21557;-57
2022/03/27 13:04:21;;;;;;;5.00;1.70;;;7.00;74.90;;;;;;1790737;79;21049;-57
2022/03/27 13:07:03;;;;;;;2.87;1.47;;;7.00;75.20;;;;;;1790781;80;21032;-57
2022/03/27 13:09:28;;;;;;;6.83;2.75;;;7.00;75.00;;;;;;1789360;79;21210;-57
2022/03/27 13:11:57;;;;;;;4.42;2.12;;;7.10;75.70;;;;;;1790606;80;21096;-57
2022/03/27 13:14:29;;;;;;;7.17;2.20;;;7.10;75.90;;;;;;1790753;80;21053;-57
2022/03/27 13:16:59;;;;;;;3.50;2.00;;;7.10;76.10;;;;;;1791026;80;21061;-57
2022/03/27 13:19:45;;;;;;;5.87;2.08;;;7.20;76.40;;;;;;1791031;80;21115;-57
2022/03/27 13:22:15;;;;;;;2.27;2.08;;;7.30;77.00;;;;;;1790919;80;21053;-57
2022/03/27 13:24:44;;;;;;;2.45;1.90;;;7.40;77.10;;;;;;1790777;80;21187;-56
2022/03/27 13:27:14;;;;;;;5.20;2.10;;;7.50;77.30;;;;;;1790762;80;21127;-57